Aérodrome :
LOGIN :

S'inscrire | Disclaimer

   EN    FR    IT 

 










Légende :    VFR   VFR Marginal   IFR   IFR Intensif   IFR Très Intensif
Visi : 
Plafond : 
>= 8 km
>= 3000ft
5 à 8 km
1000 à 3000 ft
1500m à 5 km
500 à 1000 ft
800 à 1500m
200 à 500 ft
< 800m
< 200 ft
Symboles :   Orages  Brouillard  Fortes neiges  Fortes précipitations  Vent > 20 kt
SIGMETs :   Divers  Orages  Givrage  Turbulence  Onde Orograph.  Cendres Volcan.






- Altitude de l'aérodrome : 1470 ft


LSMD - Dubendorf Military

DERNIER METAR :
  • 102120Z AUTO 10004KT 080V140 9999NDV FEW130 21/15 Q1017 RMK

METARs EXPIRÉS :
  • 102050Z AUTO 15005KT 9999NDV FEW140 23/14 Q1017 RMK
  • 102020Z AUTO VRB02KT 9999NDV FEW089 23/13 Q1016 RMK
  • 101950Z AUTO VRB02KT 9999NDV NCD 23/15 Q1016 RMK
  • 101920Z AUTO VRB04KT 9999NDV NCD 24/14 Q1016 RMK
  • 101850Z AUTO VRB06KT 9999NDV NCD 25/14 Q1015 RMK

Prévision TAF périmée.



MET'MAP, la Météo Aéronautique d'un coup d'oeil ! - Copyright ORBIFLY Décembre 2007 - Disclaimer

ORBIFLY MET'MAP TEAM :

Programmation & Développement : Alexandra Zaïnal
Sur une idée originale de : Baudouin d'Aumeries
Assistance à la programmation : Marc-Olivier Méhu
Soutien technique & logistique : Manuel Goepfert

Contact : metmap@orbifly.com




SOURCES & CREDITS :

   NOAA